sensor_id;sensor_type;location;lat;lon;timestamp;temperature;humidity
1075;DHT22;526;51.392;12.448;2022-12-08T00:01:41;3.40;97.30
1075;DHT22;526;51.392;12.448;2022-12-08T00:04:08;3.40;97.30
1075;DHT22;526;51.392;12.448;2022-12-08T00:06:39;3.40;97.30
1075;DHT22;526;51.392;12.448;2022-12-08T00:09:38;3.40;97.30
1075;DHT22;526;51.392;12.448;2022-12-08T00:14:37;3.40;97.30
1075;DHT22;526;51.392;12.448;2022-12-08T00:17:05;3.40;97.30
1075;DHT22;526;51.392;12.448;2022-12-08T00:19:31;3.40;97.30
1075;DHT22;526;51.392;12.448;2022-12-08T00:21:57;3.40;97.30
1075;DHT22;526;51.392;12.448;2022-12-08T00:24:24;3.40;97.30
1075;DHT22;526;51.392;12.448;2022-12-08T00:26:50;3.40;97.30
1075;DHT22;526;51.392;12.448;2022-12-08T00:29:17;3.40;97.30
1075;DHT22;526;51.392;12.448;2022-12-08T00:31:42;3.30;97.30
1075;DHT22;526;51.392;12.448;2022-12-08T00:34:08;3.30;97.30
1075;DHT22;526;51.392;12.448;2022-12-08T00:36:34;3.40;97.30
1075;DHT22;526;51.392;12.448;2022-12-08T00:38:59;3.40;97.30
1075;DHT22;526;51.392;12.448;2022-12-08T00:41:27;3.30;97.30
1075;DHT22;526;51.392;12.448;2022-12-08T00:44:14;3.30;97.30
1075;DHT22;526;51.392;12.448;2022-12-08T00:46:40;3.30;97.30
1075;DHT22;526;51.392;12.448;2022-12-08T00:49:06;3.30;97.30
1075;DHT22;526;51.392;12.448;2022-12-08T00:51:32;3.30;97.30
1075;DHT22;526;51.392;12.448;2022-12-08T00:53:58;3.30;97.30
1075;DHT22;526;51.392;12.448;2022-12-08T00:56:23;3.30;97.30
1075;DHT22;526;51.392;12.448;2022-12-08T00:58:49;3.20;97.30
1075;DHT22;526;51.392;12.448;2022-12-08T01:01:15;3.20;97.30
1075;DHT22;526;51.392;12.448;2022-12-08T01:03:41;3.20;97.30
1075;DHT22;526;51.392;12.448;2022-12-08T01:06:07;3.20;97.30
1075;DHT22;526;51.392;12.448;2022-12-08T01:08:34;3.20;97.30
1075;DHT22;526;51.392;12.448;2022-12-08T01:11:09;3.20;97.30
1075;DHT22;526;51.392;12.448;2022-12-08T01:13:36;3.20;97.30
1075;DHT22;526;51.392;12.448;2022-12-08T01:16:02;3.20;97.30
1075;DHT22;526;51.392;12.448;2022-12-08T01:18:27;3.20;97.30
1075;DHT22;526;51.392;12.448;2022-12-08T01:20:53;3.20;97.30
1075;DHT22;526;51.392;12.448;2022-12-08T01:23:19;3.10;97.30
1075;DHT22;526;51.392;12.448;2022-12-08T01:25:44;3.10;97.30
1075;DHT22;526;51.392;12.448;2022-12-08T01:28:10;3.10;97.30
1075;DHT22;526;51.392;12.448;2022-12-08T01:30:39;3.10;97.30
1075;DHT22;526;51.392;12.448;2022-12-08T01:33:05;3.10;97.30
1075;DHT22;526;51.392;12.448;2022-12-08T01:35:32;3.10;97.30
1075;DHT22;526;51.392;12.448;2022-12-08T01:37:57;3.10;97.30
1075;DHT22;526;51.392;12.448;2022-12-08T01:40:23;3.10;97.30
1075;DHT22;526;51.392;12.448;2022-12-08T01:42:49;3.10;97.30
1075;DHT22;526;51.392;12.448;2022-12-08T01:45:24;3.10;97.30
1075;DHT22;526;51.392;12.448;2022-12-08T01:47:53;3.10;97.30
1075;DHT22;526;51.392;12.448;2022-12-08T01:50:20;3.10;97.30
1075;DHT22;526;51.392;12.448;2022-12-08T01:52:49;3.10;97.30
1075;DHT22;526;51.392;12.448;2022-12-08T01:57:49;3.10;97.30
1075;DHT22;526;51.392;12.448;2022-12-08T02:00:17;3.10;97.30
1075;DHT22;526;51.392;12.448;2022-12-08T02:03:06;3.10;97.30
1075;DHT22;526;51.392;12.448;2022-12-08T02:05:34;3.10;97.30
1075;DHT22;526;51.392;12.448;2022-12-08T02:08:02;3.00;97.30
1075;DHT22;526;51.392;12.448;2022-12-08T02:10:33;3.00;97.30
1075;DHT22;526;51.392;12.448;2022-12-08T02:13:00;3.00;97.30
1075;DHT22;526;51.392;12.448;2022-12-08T02:18:34;3.00;97.30
1075;DHT22;526;51.392;12.448;2022-12-08T02:23:50;3.00;97.30
1075;DHT22;526;51.392;12.448;2022-12-08T02:26:43;3.00;97.30
1075;DHT22;526;51.392;12.448;2022-12-08T02:32:41;3.10;97.30
1075;DHT22;526;51.392;12.448;2022-12-08T02:34:46;3.10;97.30
1075;DHT22;526;51.392;12.448;2022-12-08T02:37:38;3.10;97.30
1075;DHT22;526;51.392;12.448;2022-12-08T02:45:31;3.10;97.30
1075;DHT22;526;51.392;12.448;2022-12-08T02:47:59;3.10;97.30
1075;DHT22;526;51.392;12.448;2022-12-08T02:50:25;3.20;97.30
1075;DHT22;526;51.392;12.448;2022-12-08T02:52:51;3.10;97.30
1075;DHT22;526;51.392;12.448;2022-12-08T02:55:56;3.20;97.30
1075;DHT22;526;51.392;12.448;2022-12-08T02:58:45;3.10;97.30
1075;DHT22;526;51.392;12.448;2022-12-08T03:07:38;3.20;97.30
1075;DHT22;526;51.392;12.448;2022-12-08T03:10:09;3.20;97.30
1075;DHT22;526;51.392;12.448;2022-12-08T03:12:41;3.20;97.30
1075;DHT22;526;51.392;12.448;2022-12-08T03:15:12;3.20;97.30
1075;DHT22;526;51.392;12.448;2022-12-08T03:17:41;3.10;97.30
1075;DHT22;526;51.392;12.448;2022-12-08T03:20:12;3.10;97.30
1075;DHT22;526;51.392;12.448;2022-12-08T03:22:39;3.10;97.30
1075;DHT22;526;51.392;12.448;2022-12-08T03:25:07;3.10;97.30
1075;DHT22;526;51.392;12.448;2022-12-08T03:27:34;3.10;97.30
1075;DHT22;526;51.392;12.448;2022-12-08T03:30:00;3.10;97.30
1075;DHT22;526;51.392;12.448;2022-12-08T03:35:15;3.10;97.30
1075;DHT22;526;51.392;12.448;2022-12-08T03:37:42;3.10;97.30
1075;DHT22;526;51.392;12.448;2022-12-08T03:40:11;3.10;97.30
1075;DHT22;526;51.392;12.448;2022-12-08T03:42:37;3.20;97.30
1075;DHT22;526;51.392;12.448;2022-12-08T03:45:04;3.10;97.30
1075;DHT22;526;51.392;12.448;2022-12-08T03:47:29;3.20;97.30
1075;DHT22;526;51.392;12.448;2022-12-08T03:49:55;3.10;97.30
1075;DHT22;526;51.392;12.448;2022-12-08T03:52:20;3.10;97.30
1075;DHT22;526;51.392;12.448;2022-12-08T03:54:46;3.10;97.30
1075;DHT22;526;51.392;12.448;2022-12-08T03:57:11;3.10;97.30
1075;DHT22;526;51.392;12.448;2022-12-08T03:59:37;3.10;97.30
1075;DHT22;526;51.392;12.448;2022-12-08T04:02:03;3.00;97.30
1075;DHT22;526;51.392;12.448;2022-12-08T04:04:28;3.00;97.30
1075;DHT22;526;51.392;12.448;2022-12-08T04:06:54;3.00;97.30
1075;DHT22;526;51.392;12.448;2022-12-08T04:09:19;3.00;97.30
1075;DHT22;526;51.392;12.448;2022-12-08T04:11:45;2.90;97.30
1075;DHT22;526;51.392;12.448;2022-12-08T04:14:10;2.90;97.30
1075;DHT22;526;51.392;12.448;2022-12-08T04:16:36;2.90;97.30
1075;DHT22;526;51.392;12.448;2022-12-08T04:19:01;2.90;97.30
1075;DHT22;526;51.392;12.448;2022-12-08T04:21:27;2.90;97.30
1075;DHT22;526;51.392;12.448;2022-12-08T04:23:52;2.90;97.30
1075;DHT22;526;51.392;12.448;2022-12-08T04:26:18;2.90;97.30
1075;DHT22;526;51.392;12.448;2022-12-08T04:28:44;2.90;97.30
1075;DHT22;526;51.392;12.448;2022-12-08T04:31:09;2.80;97.30
1075;DHT22;526;51.392;12.448;2022-12-08T04:33:35;2.80;97.30
1075;DHT22;526;51.392;12.448;2022-12-08T04:36:02;2.80;97.30
1075;DHT22;526;51.392;12.448;2022-12-08T04:38:28;2.80;97.30
1075;DHT22;526;51.392;12.448;2022-12-08T04:40:54;2.80;97.30
1075;DHT22;526;51.392;12.448;2022-12-08T04:43:19;2.80;97.30
1075;DHT22;526;51.392;12.448;2022-12-08T04:45:45;2.80;97.30
1075;DHT22;526;51.392;12.448;2022-12-08T04:48:11;2.80;97.30
1075;DHT22;526;51.392;12.448;2022-12-08T04:50:39;2.80;97.30
1075;DHT22;526;51.392;12.448;2022-12-08T04:53:05;2.80;97.30
1075;DHT22;526;51.392;12.448;2022-12-08T04:55:30;2.90;97.30
1075;DHT22;526;51.392;12.448;2022-12-08T04:57:56;2.90;97.30
1075;DHT22;526;51.392;12.448;2022-12-08T05:00:21;2.90;97.30
1075;DHT22;526;51.392;12.448;2022-12-08T05:02:47;2.90;97.30
1075;DHT22;526;51.392;12.448;2022-12-08T05:05:12;2.90;97.30
1075;DHT22;526;51.392;12.448;2022-12-08T05:07:38;3.00;97.30
1075;DHT22;526;51.392;12.448;2022-12-08T05:10:04;3.00;97.30
1075;DHT22;526;51.392;12.448;2022-12-08T05:12:29;3.00;97.30
1075;DHT22;526;51.392;12.448;2022-12-08T05:14:55;3.00;97.30
1075;DHT22;526;51.392;12.448;2022-12-08T05:17:20;3.00;97.30
1075;DHT22;526;51.392;12.448;2022-12-08T05:19:46;3.00;97.30
1075;DHT22;526;51.392;12.448;2022-12-08T05:22:12;3.00;97.30
1075;DHT22;526;51.392;12.448;2022-12-08T05:24:37;3.00;97.30
1075;DHT22;526;51.392;12.448;2022-12-08T05:27:03;3.00;97.30
1075;DHT22;526;51.392;12.448;2022-12-08T05:29:29;3.00;97.30
1075;DHT22;526;51.392;12.448;2022-12-08T05:31:54;3.00;97.30
1075;DHT22;526;51.392;12.448;2022-12-08T05:34:20;3.00;97.30
1075;DHT22;526;51.392;12.448;2022-12-08T05:36:45;3.00;97.30
1075;DHT22;526;51.392;12.448;2022-12-08T05:39:12;3.00;97.30
1075;DHT22;526;51.392;12.448;2022-12-08T05:41:38;3.00;97.30
1075;DHT22;526;51.392;12.448;2022-12-08T05:45:26;3.00;97.30
1075;DHT22;526;51.392;12.448;2022-12-08T05:47:52;3.00;97.30
1075;DHT22;526;51.392;12.448;2022-12-08T05:50:18;3.00;97.30
1075;DHT22;526;51.392;12.448;2022-12-08T05:52:43;3.00;97.30
1075;DHT22;526;51.392;12.448;2022-12-08T05:55:09;3.00;97.30
1075;DHT22;526;51.392;12.448;2022-12-08T05:57:34;3.00;97.30
1075;DHT22;526;51.392;12.448;2022-12-08T06:00:00;3.10;97.30
1075;DHT22;526;51.392;12.448;2022-12-08T06:06:13;3.00;97.30
1075;DHT22;526;51.392;12.448;2022-12-08T06:08:39;3.10;97.30
1075;DHT22;526;51.392;12.448;2022-12-08T06:11:04;3.10;97.30
1075;DHT22;526;51.392;12.448;2022-12-08T06:13:30;3.10;97.30
1075;DHT22;526;51.392;12.448;2022-12-08T06:16:03;3.00;97.30
1075;DHT22;526;51.392;12.448;2022-12-08T06:18:28;3.00;97.30
1075;DHT22;526;51.392;12.448;2022-12-08T06:21:04;3.00;97.30
1075;DHT22;526;51.392;12.448;2022-12-08T06:23:30;3.00;97.30
1075;DHT22;526;51.392;12.448;2022-12-08T06:26:03;3.00;97.30
1075;DHT22;526;51.392;12.448;2022-12-08T06:28:29;3.00;97.30
1075;DHT22;526;51.392;12.448;2022-12-08T06:30:56;3.00;97.30
1075;DHT22;526;51.392;12.448;2022-12-08T06:33:27;3.00;97.30
1075;DHT22;526;51.392;12.448;2022-12-08T06:39:20;2.90;97.30
1075;DHT22;526;51.392;12.448;2022-12-08T06:42:00;2.90;97.30
1075;DHT22;526;51.392;12.448;2022-12-08T06:45:10;2.90;97.30
1075;DHT22;526;51.392;12.448;2022-12-08T06:54:49;2.80;97.30
1075;DHT22;526;51.392;12.448;2022-12-08T06:57:29;2.80;97.30
1075;DHT22;526;51.392;12.448;2022-12-08T07:00:29;2.80;97.30
1075;DHT22;526;51.392;12.448;2022-12-08T07:03:19;2.70;97.30
1075;DHT22;526;51.392;12.448;2022-12-08T07:05:58;2.70;97.30
1075;DHT22;526;51.392;12.448;2022-12-08T07:08:49;2.70;97.30
1075;DHT22;526;51.392;12.448;2022-12-08T07:14:59;2.70;97.30
1075;DHT22;526;51.392;12.448;2022-12-08T07:18:08;2.70;97.30
1075;DHT22;526;51.392;12.448;2022-12-08T07:21:10;2.70;97.30
1075;DHT22;526;51.392;12.448;2022-12-08T07:27:20;2.70;97.30
1075;DHT22;526;51.392;12.448;2022-12-08T07:29:48;2.70;97.30
1075;DHT22;526;51.392;12.448;2022-12-08T07:35:59;2.80;97.30
1075;DHT22;526;51.392;12.448;2022-12-08T07:38:28;2.80;97.30
1075;DHT22;526;51.392;12.448;2022-12-08T07:41:10;2.90;97.30
1075;DHT22;526;51.392;12.448;2022-12-08T07:47:17;2.90;97.30
1075;DHT22;526;51.392;12.448;2022-12-08T07:49:46;2.90;97.30
1075;DHT22;526;51.392;12.448;2022-12-08T07:56:19;3.00;97.30
1075;DHT22;526;51.392;12.448;2022-12-08T07:59:08;3.00;97.30
1075;DHT22;526;51.392;12.448;2022-12-08T08:01:40;3.00;97.30
1075;DHT22;526;51.392;12.448;2022-12-08T08:04:09;3.40;97.30
1075;DHT22;526;51.392;12.448;2022-12-08T08:09:57;3.20;97.30
1075;DHT22;526;51.392;12.448;2022-12-08T08:15:19;3.10;97.30
1075;DHT22;526;51.392;12.448;2022-12-08T08:17:49;3.00;97.30
1075;DHT22;526;51.392;12.448;2022-12-08T08:20:39;3.00;97.30
1075;DHT22;526;51.392;12.448;2022-12-08T08:23:30;3.00;97.30
1075;DHT22;526;51.392;12.448;2022-12-08T08:29:39;2.90;97.30
1075;DHT22;526;51.392;12.448;2022-12-08T08:32:39;3.00;97.30
1075;DHT22;526;51.392;12.448;2022-12-08T08:35:49;3.00;97.30
1075;DHT22;526;51.392;12.448;2022-12-08T11:01:50;5.10;97.30
1075;DHT22;526;51.392;12.448;2022-12-08T11:05:13;5.10;97.30
1075;DHT22;526;51.392;12.448;2022-12-08T11:08:02;5.10;97.30
1075;DHT22;526;51.392;12.448;2022-12-08T11:10:48;5.10;97.30
1075;DHT22;526;51.392;12.448;2022-12-08T11:13:23;5.20;97.30
1075;DHT22;526;51.392;12.448;2022-12-08T11:15:53;5.20;97.30
1075;DHT22;526;51.392;12.448;2022-12-08T11:18:43;5.20;97.30
1075;DHT22;526;51.392;12.448;2022-12-08T11:21:18;5.20;97.30
1075;DHT22;526;51.392;12.448;2022-12-08T11:23:49;5.20;97.30
1075;DHT22;526;51.392;12.448;2022-12-08T11:26:29;5.30;97.30
1075;DHT22;526;51.392;12.448;2022-12-08T11:28:57;5.40;97.30
1075;DHT22;526;51.392;12.448;2022-12-08T11:31:32;5.50;97.30
1075;DHT22;526;51.392;12.448;2022-12-08T11:33:59;5.60;97.30
1075;DHT22;526;51.392;12.448;2022-12-08T11:36:28;5.80;97.30
1075;DHT22;526;51.392;12.448;2022-12-08T11:38:57;6.00;97.30
1075;DHT22;526;51.392;12.448;2022-12-08T11:41:28;6.20;97.30
1075;DHT22;526;51.392;12.448;2022-12-08T11:43:57;6.30;97.30
1075;DHT22;526;51.392;12.448;2022-12-08T11:46:33;6.20;97.30
1075;DHT22;526;51.392;12.448;2022-12-08T11:49:03;6.20;97.30
1075;DHT22;526;51.392;12.448;2022-12-08T11:56:56;6.10;97.30
1075;DHT22;526;51.392;12.448;2022-12-08T11:59:57;6.10;97.30
1075;DHT22;526;51.392;12.448;2022-12-08T12:02:30;6.10;97.30
1075;DHT22;526;51.392;12.448;2022-12-08T12:08:19;5.90;97.30
1075;DHT22;526;51.392;12.448;2022-12-08T12:16:34;5.70;97.30
1075;DHT22;526;51.392;12.448;2022-12-08T12:19:13;5.70;97.30
1075;DHT22;526;51.392;12.448;2022-12-08T12:21:43;5.70;97.30
1075;DHT22;526;51.392;12.448;2022-12-08T12:24:19;5.60;97.30
1075;DHT22;526;51.392;12.448;2022-12-08T12:29:44;5.60;97.30
1075;DHT22;526;51.392;12.448;2022-12-08T12:32:11;5.60;97.30
1075;DHT22;526;51.392;12.448;2022-12-08T12:34:47;5.50;97.30
1075;DHT22;526;51.392;12.448;2022-12-08T12:37:16;5.50;97.30
1075;DHT22;526;51.392;12.448;2022-12-08T12:58:21;5.30;97.30
1075;DHT22;526;51.392;12.448;2022-12-08T13:00:47;5.30;97.30
1075;DHT22;526;51.392;12.448;2022-12-08T13:03:14;5.30;97.30
1075;DHT22;526;51.392;12.448;2022-12-08T13:05:51;5.20;97.30
1075;DHT22;526;51.392;12.448;2022-12-08T13:08:21;5.20;97.30
1075;DHT22;526;51.392;12.448;2022-12-08T13:11:03;5.20;97.30
1075;DHT22;526;51.392;12.448;2022-12-08T13:13:29;5.20;97.30
1075;DHT22;526;51.392;12.448;2022-12-08T13:18:34;5.20;97.30
1075;DHT22;526;51.392;12.448;2022-12-08T13:21:11;5.20;97.30
1075;DHT22;526;51.392;12.448;2022-12-08T13:24:28;5.20;97.30
1075;DHT22;526;51.392;12.448;2022-12-08T13:26:28;5.20;97.30
1075;DHT22;526;51.392;12.448;2022-12-08T13:31:38;5.20;97.30
1075;DHT22;526;51.392;12.448;2022-12-08T13:34:06;5.20;97.30
1075;DHT22;526;51.392;12.448;2022-12-08T13:36:38;5.20;97.30
1075;DHT22;526;51.392;12.448;2022-12-08T13:39:15;5.20;97.30
1075;DHT22;526;51.392;12.448;2022-12-08T13:41:52;5.20;97.30
1075;DHT22;526;51.392;12.448;2022-12-08T13:44:25;5.20;97.30
1075;DHT22;526;51.392;12.448;2022-12-08T13:46:55;5.20;97.30
1075;DHT22;526;51.392;12.448;2022-12-08T13:49:33;5.20;97.30
1075;DHT22;526;51.392;12.448;2022-12-08T13:52:01;5.20;97.30
1075;DHT22;526;51.392;12.448;2022-12-08T13:54:46;5.10;97.30
1075;DHT22;526;51.392;12.448;2022-12-08T13:59:53;5.10;97.30
1075;DHT22;526;51.392;12.448;2022-12-08T14:04:47;5.10;97.30
1075;DHT22;526;51.392;12.448;2022-12-08T14:07:13;5.10;97.30
1075;DHT22;526;51.392;12.448;2022-12-08T14:09:39;5.10;97.30
1075;DHT22;526;51.392;12.448;2022-12-08T14:12:17;5.10;97.30
1075;DHT22;526;51.392;12.448;2022-12-08T14:14:46;5.10;97.30
1075;DHT22;526;51.392;12.448;2022-12-08T14:17:15;5.00;97.30
1075;DHT22;526;51.392;12.448;2022-12-08T14:19:44;5.00;97.30
1075;DHT22;526;51.392;12.448;2022-12-08T14:22:15;5.00;97.30
1075;DHT22;526;51.392;12.448;2022-12-08T14:24:46;5.00;97.30
1075;DHT22;526;51.392;12.448;2022-12-08T14:27:16;5.00;97.30
1075;DHT22;526;51.392;12.448;2022-12-08T14:29:55;5.00;97.30
1075;DHT22;526;51.392;12.448;2022-12-08T14:35:26;4.90;97.30
1075;DHT22;526;51.392;12.448;2022-12-08T14:37:55;4.90;97.30
1075;DHT22;526;51.392;12.448;2022-12-08T14:40:24;4.90;97.30
1075;DHT22;526;51.392;12.448;2022-12-08T14:45:34;4.80;97.30
1075;DHT22;526;51.392;12.448;2022-12-08T14:53:54;4.80;97.30
1075;DHT22;526;51.392;12.448;2022-12-08T15:01:49;4.70;97.30
1075;DHT22;526;51.392;12.448;2022-12-08T15:04:23;4.60;97.30
1075;DHT22;526;51.392;12.448;2022-12-08T15:07:04;4.60;97.30
1075;DHT22;526;51.392;12.448;2022-12-08T15:12:25;4.60;97.30
1075;DHT22;526;51.392;12.448;2022-12-08T15:17:44;4.50;97.30
1075;DHT22;526;51.392;12.448;2022-12-08T15:20:44;4.50;97.30
1075;DHT22;526;51.392;12.448;2022-12-08T15:25:43;4.50;97.30
1075;DHT22;526;51.392;12.448;2022-12-08T15:28:12;4.50;97.30
1075;DHT22;526;51.392;12.448;2022-12-08T15:30:38;4.50;97.30
1075;DHT22;526;51.392;12.448;2022-12-08T15:33:04;4.50;97.30
1075;DHT22;526;51.392;12.448;2022-12-08T15:35:29;4.50;97.30
1075;DHT22;526;51.392;12.448;2022-12-08T15:37:55;4.50;97.30
1075;DHT22;526;51.392;12.448;2022-12-08T15:40:21;4.50;97.30
1075;DHT22;526;51.392;12.448;2022-12-08T15:42:53;4.40;97.30
1075;DHT22;526;51.392;12.448;2022-12-08T15:45:25;4.40;97.30
1075;DHT22;526;51.392;12.448;2022-12-08T15:47:51;4.40;97.30
1075;DHT22;526;51.392;12.448;2022-12-08T15:50:19;4.40;97.30
1075;DHT22;526;51.392;12.448;2022-12-08T15:52:45;4.40;97.30
1075;DHT22;526;51.392;12.448;2022-12-08T15:55:16;4.40;97.30
1075;DHT22;526;51.392;12.448;2022-12-08T15:57:47;4.40;97.30
1075;DHT22;526;51.392;12.448;2022-12-08T16:00:26;4.40;97.30
1075;DHT22;526;51.392;12.448;2022-12-08T16:02:53;4.40;97.30
1075;DHT22;526;51.392;12.448;2022-12-08T16:05:20;4.40;97.30
1075;DHT22;526;51.392;12.448;2022-12-08T16:07:46;4.40;97.30
1075;DHT22;526;51.392;12.448;2022-12-08T16:10:20;4.40;97.30
1075;DHT22;526;51.392;12.448;2022-12-08T16:12:46;4.40;97.30
1075;DHT22;526;51.392;12.448;2022-12-08T16:15:35;4.40;97.30
1075;DHT22;526;51.392;12.448;2022-12-08T16:18:01;4.40;97.30
1075;DHT22;526;51.392;12.448;2022-12-08T16:20:26;4.30;97.30
1075;DHT22;526;51.392;12.448;2022-12-08T16:22:52;4.20;97.30
1075;DHT22;526;51.392;12.448;2022-12-08T16:25:18;4.10;97.30
1075;DHT22;526;51.392;12.448;2022-12-08T16:27:44;4.00;97.30
1075;DHT22;526;51.392;12.448;2022-12-08T16:30:14;3.80;97.30
1075;DHT22;526;51.392;12.448;2022-12-08T16:32:40;3.60;97.30
1075;DHT22;526;51.392;12.448;2022-12-08T16:35:06;3.40;97.30
1075;DHT22;526;51.392;12.448;2022-12-08T16:37:40;3.30;97.30
1075;DHT22;526;51.392;12.448;2022-12-08T16:40:07;3.20;97.30
1075;DHT22;526;51.392;12.448;2022-12-08T16:42:33;3.10;97.30
1075;DHT22;526;51.392;12.448;2022-12-08T16:45:17;3.10;97.30
1075;DHT22;526;51.392;12.448;2022-12-08T16:47:51;3.00;97.30
1075;DHT22;526;51.392;12.448;2022-12-08T16:50:23;3.00;97.30
1075;DHT22;526;51.392;12.448;2022-12-08T16:52:55;3.00;97.30
1075;DHT22;526;51.392;12.448;2022-12-08T16:55:21;3.00;97.30
1075;DHT22;526;51.392;12.448;2022-12-08T16:57:46;2.90;97.30
1075;DHT22;526;51.392;12.448;2022-12-08T17:00:18;2.80;97.30
1075;DHT22;526;51.392;12.448;2022-12-08T17:02:44;2.70;97.30
1075;DHT22;526;51.392;12.448;2022-12-08T17:05:15;2.70;97.30
1075;DHT22;526;51.392;12.448;2022-12-08T17:07:42;2.60;97.30
1075;DHT22;526;51.392;12.448;2022-12-08T17:10:10;2.60;97.30
1075;DHT22;526;51.392;12.448;2022-12-08T17:12:36;2.60;97.30
1075;DHT22;526;51.392;12.448;2022-12-08T17:15:07;2.60;97.30
1075;DHT22;526;51.392;12.448;2022-12-08T17:17:33;2.60;97.30
1075;DHT22;526;51.392;12.448;2022-12-08T17:20:03;2.60;97.30
1075;DHT22;526;51.392;12.448;2022-12-08T17:22:30;2.60;97.30
1075;DHT22;526;51.392;12.448;2022-12-08T17:24:56;2.60;97.30
1075;DHT22;526;51.392;12.448;2022-12-08T17:27:22;2.60;97.30
1075;DHT22;526;51.392;12.448;2022-12-08T17:29:47;2.60;97.30
1075;DHT22;526;51.392;12.448;2022-12-08T17:32:13;2.60;97.30
1075;DHT22;526;51.392;12.448;2022-12-08T17:34:38;2.60;97.30
1075;DHT22;526;51.392;12.448;2022-12-08T17:37:04;2.60;97.30
1075;DHT22;526;51.392;12.448;2022-12-08T17:39:29;2.50;97.30
1075;DHT22;526;51.392;12.448;2022-12-08T17:41:55;2.50;97.30
1075;DHT22;526;51.392;12.448;2022-12-08T17:44:21;2.50;97.30
1075;DHT22;526;51.392;12.448;2022-12-08T17:46:47;2.40;97.30
1075;DHT22;526;51.392;12.448;2022-12-08T17:49:17;2.40;97.30
1075;DHT22;526;51.392;12.448;2022-12-08T17:51:52;2.30;97.30
1075;DHT22;526;51.392;12.448;2022-12-08T17:54:18;2.30;97.30
1075;DHT22;526;51.392;12.448;2022-12-08T17:56:45;2.20;97.30
1075;DHT22;526;51.392;12.448;2022-12-08T17:59:12;2.20;97.30
1075;DHT22;526;51.392;12.448;2022-12-08T18:01:38;2.10;97.30
1075;DHT22;526;51.392;12.448;2022-12-08T18:04:06;2.00;97.30
1075;DHT22;526;51.392;12.448;2022-12-08T18:06:33;2.00;97.30
1075;DHT22;526;51.392;12.448;2022-12-08T18:08:59;1.90;97.30
1075;DHT22;526;51.392;12.448;2022-12-08T18:11:26;1.90;97.30
1075;DHT22;526;51.392;12.448;2022-12-08T18:13:53;1.90;97.30
1075;DHT22;526;51.392;12.448;2022-12-08T18:16:21;1.80;97.30
1075;DHT22;526;51.392;12.448;2022-12-08T18:18:47;1.80;97.30
1075;DHT22;526;51.392;12.448;2022-12-08T18:21:16;1.80;97.30
1075;DHT22;526;51.392;12.448;2022-12-08T18:23:42;1.80;97.30
1075;DHT22;526;51.392;12.448;2022-12-08T18:26:09;1.80;97.30
1075;DHT22;526;51.392;12.448;2022-12-08T18:28:38;1.80;97.30
1075;DHT22;526;51.392;12.448;2022-12-08T18:31:12;1.80;97.30
1075;DHT22;526;51.392;12.448;2022-12-08T18:33:40;1.80;97.30
1075;DHT22;526;51.392;12.448;2022-12-08T18:36:25;1.70;97.30
1075;DHT22;526;51.392;12.448;2022-12-08T18:38:51;1.70;97.30
1075;DHT22;526;51.392;12.448;2022-12-08T18:41:20;1.70;97.30
1075;DHT22;526;51.392;12.448;2022-12-08T18:43:47;1.70;97.30
1075;DHT22;526;51.392;12.448;2022-12-08T18:46:13;1.70;97.30
1075;DHT22;526;51.392;12.448;2022-12-08T18:48:41;1.70;97.30
1075;DHT22;526;51.392;12.448;2022-12-08T18:51:16;1.70;97.30
1075;DHT22;526;51.392;12.448;2022-12-08T18:53:43;1.70;97.30
1075;DHT22;526;51.392;12.448;2022-12-08T18:56:23;1.80;97.30
1075;DHT22;526;51.392;12.448;2022-12-08T18:58:48;1.70;97.30
1075;DHT22;526;51.392;12.448;2022-12-08T19:01:14;1.70;97.30
1075;DHT22;526;51.392;12.448;2022-12-08T19:03:41;1.70;97.30
1075;DHT22;526;51.392;12.448;2022-12-08T19:06:06;1.70;97.30
1075;DHT22;526;51.392;12.448;2022-12-08T19:08:32;1.70;97.30
1075;DHT22;526;51.392;12.448;2022-12-08T19:10:58;1.70;97.30
1075;DHT22;526;51.392;12.448;2022-12-08T19:13:24;1.70;97.30
1075;DHT22;526;51.392;12.448;2022-12-08T19:15:50;1.70;97.30
1075;DHT22;526;51.392;12.448;2022-12-08T19:18:15;1.70;97.30
1075;DHT22;526;51.392;12.448;2022-12-08T19:20:41;1.60;97.30
1075;DHT22;526;51.392;12.448;2022-12-08T19:23:06;1.60;97.30
1075;DHT22;526;51.392;12.448;2022-12-08T19:25:32;1.60;97.30
1075;DHT22;526;51.392;12.448;2022-12-08T19:27:58;1.70;97.30
1075;DHT22;526;51.392;12.448;2022-12-08T19:30:23;1.70;97.30
1075;DHT22;526;51.392;12.448;2022-12-08T19:32:49;1.70;97.30
1075;DHT22;526;51.392;12.448;2022-12-08T19:35:15;1.70;97.30
1075;DHT22;526;51.392;12.448;2022-12-08T19:37:40;1.70;97.30
1075;DHT22;526;51.392;12.448;2022-12-08T19:40:06;1.70;97.30
1075;DHT22;526;51.392;12.448;2022-12-08T19:42:50;1.70;97.30
1075;DHT22;526;51.392;12.448;2022-12-08T19:45:35;1.80;97.30
1075;DHT22;526;51.392;12.448;2022-12-08T19:48:01;1.80;97.30
1075;DHT22;526;51.392;12.448;2022-12-08T19:50:26;1.90;97.30
1075;DHT22;526;51.392;12.448;2022-12-08T19:53:09;1.90;97.30
1075;DHT22;526;51.392;12.448;2022-12-08T19:55:36;1.80;97.30
1075;DHT22;526;51.392;12.448;2022-12-08T19:58:02;1.80;97.30
1075;DHT22;526;51.392;12.448;2022-12-08T20:00:30;1.70;97.30
1075;DHT22;526;51.392;12.448;2022-12-08T20:02:58;1.70;97.30
1075;DHT22;526;51.392;12.448;2022-12-08T20:05:24;1.70;97.30
1075;DHT22;526;51.392;12.448;2022-12-08T20:07:50;1.70;97.30
1075;DHT22;526;51.392;12.448;2022-12-08T20:10:28;1.70;97.30
1075;DHT22;526;51.392;12.448;2022-12-08T20:12:55;1.70;97.30
1075;DHT22;526;51.392;12.448;2022-12-08T20:15:41;1.70;97.30
1075;DHT22;526;51.392;12.448;2022-12-08T20:18:07;1.60;97.30
1075;DHT22;526;51.392;12.448;2022-12-08T20:20:33;1.60;97.30
1075;DHT22;526;51.392;12.448;2022-12-08T20:22:58;1.60;97.30
1075;DHT22;526;51.392;12.448;2022-12-08T20:25:24;1.60;97.30
1075;DHT22;526;51.392;12.448;2022-12-08T20:27:49;1.70;97.30
1075;DHT22;526;51.392;12.448;2022-12-08T20:30:15;1.70;97.30
1075;DHT22;526;51.392;12.448;2022-12-08T20:32:41;1.70;97.30
1075;DHT22;526;51.392;12.448;2022-12-08T20:35:07;1.80;97.30
1075;DHT22;526;51.392;12.448;2022-12-08T20:37:33;1.80;97.30
1075;DHT22;526;51.392;12.448;2022-12-08T20:39:58;1.80;97.30
1075;DHT22;526;51.392;12.448;2022-12-08T20:42:24;1.80;97.30
1075;DHT22;526;51.392;12.448;2022-12-08T20:44:49;1.80;97.30
1075;DHT22;526;51.392;12.448;2022-12-08T20:47:15;1.80;97.30
1075;DHT22;526;51.392;12.448;2022-12-08T20:49:40;1.70;97.30
1075;DHT22;526;51.392;12.448;2022-12-08T20:52:07;1.70;97.30
1075;DHT22;526;51.392;12.448;2022-12-08T20:54:33;1.70;97.30
1075;DHT22;526;51.392;12.448;2022-12-08T20:56:58;1.70;97.30
1075;DHT22;526;51.392;12.448;2022-12-08T20:59:24;1.70;97.30
1075;DHT22;526;51.392;12.448;2022-12-08T21:04:22;1.70;97.30
1075;DHT22;526;51.392;12.448;2022-12-08T21:06:48;1.70;97.30
1075;DHT22;526;51.392;12.448;2022-12-08T21:09:14;1.70;97.30
1075;DHT22;526;51.392;12.448;2022-12-08T21:11:39;1.70;97.30
1075;DHT22;526;51.392;12.448;2022-12-08T21:14:05;1.70;97.30
1075;DHT22;526;51.392;12.448;2022-12-08T21:16:31;1.70;97.30
1075;DHT22;526;51.392;12.448;2022-12-08T21:18:56;1.70;97.30
1075;DHT22;526;51.392;12.448;2022-12-08T21:21:22;1.80;97.30
1075;DHT22;526;51.392;12.448;2022-12-08T21:27:42;1.80;97.30
1075;DHT22;526;51.392;12.448;2022-12-08T21:30:27;1.80;97.30